sensor_id;sensor_type;location;lat;lon;timestamp;noise_LAeq;noise_LA_min;noise_LA_max;noise_LA01;noise_LA95
45109;Laerm;30447;48.742;8.972;2022-07-23T00:01:00;37.72;33.44;47.30;;
45109;Laerm;30447;48.742;8.972;2022-07-23T00:03:26;37.54;32.35;43.04;;
45109;Laerm;30447;48.742;8.972;2022-07-23T00:05:53;37.45;32.93;44.03;;
45109;Laerm;30447;48.742;8.972;2022-07-23T00:08:20;37.78;33.90;57.85;;
45109;Laerm;30447;48.742;8.972;2022-07-23T00:10:46;37.46;33.90;45.30;;
45109;Laerm;30447;48.742;8.972;2022-07-23T00:13:13;39.10;32.93;63.41;;
45109;Laerm;30447;48.742;8.972;2022-07-23T00:15:40;38.04;33.90;54.86;;
45109;Laerm;30447;48.742;8.972;2022-07-23T00:18:06;37.68;33.90;41.61;;
45109;Laerm;30447;48.742;8.972;2022-07-23T00:20:33;37.53;33.44;42.09;;
45109;Laerm;30447;48.742;8.972;2022-07-23T00:23:00;37.85;33.90;44.73;;
45109;Laerm;30447;48.742;8.972;2022-07-23T00:25:27;38.69;33.44;57.48;;
45109;Laerm;30447;48.742;8.972;2022-07-23T00:27:53;38.20;34.31;48.84;;
45109;Laerm;30447;48.742;8.972;2022-07-23T00:30:20;38.16;34.31;51.57;;
45109;Laerm;30447;48.742;8.972;2022-07-23T00:32:55;38.10;34.69;54.55;;
45109;Laerm;30447;48.742;8.972;2022-07-23T00:35:26;38.43;34.31;44.23;;
45109;Laerm;30447;48.742;8.972;2022-07-23T00:37:54;39.13;35.36;51.48;;
45109;Laerm;30447;48.742;8.972;2022-07-23T00:40:21;38.14;34.31;45.97;;
45109;Laerm;30447;48.742;8.972;2022-07-23T00:42:48;38.10;33.90;45.11;;
45109;Laerm;30447;48.742;8.972;2022-07-23T00:45:16;38.15;34.31;42.82;;
45109;Laerm;30447;48.742;8.972;2022-07-23T00:47:43;39.36;34.69;53.41;;
45109;Laerm;30447;48.742;8.972;2022-07-23T00:50:10;38.40;34.31;50.24;;
45109;Laerm;30447;48.742;8.972;2022-07-23T00:52:39;38.30;34.31;44.76;;
45109;Laerm;30447;48.742;8.972;2022-07-23T00:55:08;38.16;33.44;51.84;;
45109;Laerm;30447;48.742;8.972;2022-07-23T00:57:37;38.81;33.90;51.12;;
45109;Laerm;30447;48.742;8.972;2022-07-23T01:00:08;39.81;33.90;45.63;;
45109;Laerm;30447;48.742;8.972;2022-07-23T01:02:35;39.92;35.04;46.47;;
45109;Laerm;30447;48.742;8.972;2022-07-23T01:05:02;40.50;34.69;44.58;;
45109;Laerm;30447;48.742;8.972;2022-07-23T01:07:29;39.94;35.66;44.19;;
45109;Laerm;30447;48.742;8.972;2022-07-23T01:09:57;38.53;34.69;47.36;;
45109;Laerm;30447;48.742;8.972;2022-07-23T01:12:24;39.43;35.66;52.00;;
45109;Laerm;30447;48.742;8.972;2022-07-23T01:14:58;40.32;33.90;48.08;;
45109;Laerm;30447;48.742;8.972;2022-07-23T01:17:26;38.84;33.90;50.74;;
45109;Laerm;30447;48.742;8.972;2022-07-23T01:19:53;38.19;33.55;42.03;;
45109;Laerm;30447;48.742;8.972;2022-07-23T01:22:21;39.30;34.31;43.29;;
45109;Laerm;30447;48.742;8.972;2022-07-23T01:24:48;40.51;34.31;45.45;;
45109;Laerm;30447;48.742;8.972;2022-07-23T01:27:15;40.56;35.66;48.28;;
45109;Laerm;30447;48.742;8.972;2022-07-23T01:29:44;38.53;35.36;45.89;;
45109;Laerm;30447;48.742;8.972;2022-07-23T01:32:10;39.55;35.66;45.66;;
45109;Laerm;30447;48.742;8.972;2022-07-23T01:34:37;39.26;35.66;50.49;;
45109;Laerm;30447;48.742;8.972;2022-07-23T01:37:03;38.28;35.36;53.25;;
45109;Laerm;30447;48.742;8.972;2022-07-23T01:39:30;38.09;35.66;46.87;;
45109;Laerm;30447;48.742;8.972;2022-07-23T01:41:57;38.17;35.04;54.26;;
45109;Laerm;30447;48.742;8.972;2022-07-23T01:44:23;38.51;35.04;55.18;;
45109;Laerm;30447;48.742;8.972;2022-07-23T01:46:50;38.62;34.31;45.23;;
45109;Laerm;30447;48.742;8.972;2022-07-23T01:49:16;38.59;33.90;51.53;;
45109;Laerm;30447;48.742;8.972;2022-07-23T01:51:43;37.58;34.31;43.39;;
45109;Laerm;30447;48.742;8.972;2022-07-23T01:54:29;37.84;33.44;41.82;;
45109;Laerm;30447;48.742;8.972;2022-07-23T01:56:56;38.19;34.69;43.86;;
45109;Laerm;30447;48.742;8.972;2022-07-23T01:59:24;38.23;34.31;47.40;;
45109;Laerm;30447;48.742;8.972;2022-07-23T02:01:51;38.48;34.69;43.09;;
45109;Laerm;30447;48.742;8.972;2022-07-23T02:04:20;38.27;34.31;48.95;;
45109;Laerm;30447;48.742;8.972;2022-07-23T02:06:48;38.54;34.31;45.30;;
45109;Laerm;30447;48.742;8.972;2022-07-23T02:09:15;39.40;35.36;43.94;;
45109;Laerm;30447;48.742;8.972;2022-07-23T02:11:42;38.74;35.66;43.00;;
45109;Laerm;30447;48.742;8.972;2022-07-23T02:14:09;39.64;35.36;45.17;;
45109;Laerm;30447;48.742;8.972;2022-07-23T02:16:35;38.45;35.94;46.25;;
45109;Laerm;30447;48.742;8.972;2022-07-23T02:19:04;38.54;35.04;52.97;;
45109;Laerm;30447;48.742;8.972;2022-07-23T02:21:30;39.01;35.66;49.94;;
45109;Laerm;30447;48.742;8.972;2022-07-23T02:23:57;41.29;36.20;48.88;;
45109;Laerm;30447;48.742;8.972;2022-07-23T02:26:24;38.11;34.31;43.54;;
45109;Laerm;30447;48.742;8.972;2022-07-23T02:28:50;38.38;36.20;44.97;;
45109;Laerm;30447;48.742;8.972;2022-07-23T02:31:20;39.04;35.66;60.87;;
45109;Laerm;30447;48.742;8.972;2022-07-23T02:33:46;38.70;35.94;55.19;;
45109;Laerm;30447;48.742;8.972;2022-07-23T02:36:13;42.22;33.90;67.10;;
45109;Laerm;30447;48.742;8.972;2022-07-23T02:38:39;42.15;33.44;67.35;;
45109;Laerm;30447;48.742;8.972;2022-07-23T02:41:06;37.48;32.93;40.43;;
45109;Laerm;30447;48.742;8.972;2022-07-23T02:43:33;37.54;32.93;41.14;;
45109;Laerm;30447;48.742;8.972;2022-07-23T02:45:59;37.62;32.93;42.71;;
45109;Laerm;30447;48.742;8.972;2022-07-23T02:48:27;37.89;33.90;42.03;;
45109;Laerm;30447;48.742;8.972;2022-07-23T02:50:53;37.84;32.93;42.47;;
45109;Laerm;30447;48.742;8.972;2022-07-23T02:53:23;37.58;32.93;40.43;;
45109;Laerm;30447;48.742;8.972;2022-07-23T02:55:50;37.89;32.93;42.53;;
45109;Laerm;30447;48.742;8.972;2022-07-23T02:58:17;38.57;33.90;52.34;;
45109;Laerm;30447;48.742;8.972;2022-07-23T03:00:44;38.13;33.90;41.22;;
45109;Laerm;30447;48.742;8.972;2022-07-23T03:03:11;38.28;33.44;41.82;;
45109;Laerm;30447;48.742;8.972;2022-07-23T03:05:37;37.66;33.44;40.71;;
45109;Laerm;30447;48.742;8.972;2022-07-23T03:08:04;38.29;34.69;41.30;;
45109;Laerm;30447;48.742;8.972;2022-07-23T03:10:31;38.58;34.31;46.87;;
45109;Laerm;30447;48.742;8.972;2022-07-23T03:12:57;39.07;33.90;44.90;;
45109;Laerm;30447;48.742;8.972;2022-07-23T03:15:24;38.84;34.31;42.53;;
45109;Laerm;30447;48.742;8.972;2022-07-23T03:17:50;39.60;35.04;45.45;;
45109;Laerm;30447;48.742;8.972;2022-07-23T03:20:17;38.61;33.90;43.34;;
45109;Laerm;30447;48.742;8.972;2022-07-23T03:22:44;39.10;34.31;59.16;;
45109;Laerm;30447;48.742;8.972;2022-07-23T03:25:10;38.44;33.90;41.96;;
45109;Laerm;30447;48.742;8.972;2022-07-23T03:27:37;38.92;33.90;42.22;;
45109;Laerm;30447;48.742;8.972;2022-07-23T03:30:04;38.80;34.69;44.27;;
45109;Laerm;30447;48.742;8.972;2022-07-23T03:32:31;38.04;33.44;42.98;;
45109;Laerm;30447;48.742;8.972;2022-07-23T03:34:58;39.79;33.44;59.61;;
45109;Laerm;30447;48.742;8.972;2022-07-23T03:37:25;38.07;33.90;43.58;;
45109;Laerm;30447;48.742;8.972;2022-07-23T03:39:51;38.60;34.69;53.81;;
45109;Laerm;30447;48.742;8.972;2022-07-23T03:42:18;39.07;35.04;54.42;;
45109;Laerm;30447;48.742;8.972;2022-07-23T03:44:45;39.00;34.31;44.23;;
45109;Laerm;30447;48.742;8.972;2022-07-23T03:47:11;38.72;34.69;43.19;;
45109;Laerm;30447;48.742;8.972;2022-07-23T03:49:38;38.25;34.31;52.08;;
45109;Laerm;30447;48.742;8.972;2022-07-23T03:52:05;38.37;34.31;44.76;;
45109;Laerm;30447;48.742;8.972;2022-07-23T03:54:31;39.75;32.93;45.83;;
45109;Laerm;30447;48.742;8.972;2022-07-23T03:56:58;40.11;35.66;44.94;;
45109;Laerm;30447;48.742;8.972;2022-07-23T03:59:25;40.08;36.20;48.03;;
45109;Laerm;30447;48.742;8.972;2022-07-23T04:01:51;40.82;37.12;47.79;;
45109;Laerm;30447;48.742;8.972;2022-07-23T04:04:18;41.88;35.66;54.20;;
45109;Laerm;30447;48.742;8.972;2022-07-23T04:06:44;44.79;34.69;55.42;;
45109;Laerm;30447;48.742;8.972;2022-07-23T04:09:11;39.66;34.69;52.86;;
45109;Laerm;30447;48.742;8.972;2022-07-23T04:11:38;39.76;34.69;55.03;;
45109;Laerm;30447;48.742;8.972;2022-07-23T04:14:04;39.25;33.90;51.23;;
45109;Laerm;30447;48.742;8.972;2022-07-23T04:16:31;41.41;35.66;51.02;;
45109;Laerm;30447;48.742;8.972;2022-07-23T04:18:58;40.69;35.36;52.73;;
45109;Laerm;30447;48.742;8.972;2022-07-23T04:21:24;39.09;35.66;46.15;;
45109;Laerm;30447;48.742;8.972;2022-07-23T04:23:51;40.04;36.69;47.72;;
45109;Laerm;30447;48.742;8.972;2022-07-23T04:26:18;40.25;35.94;59.94;;
45109;Laerm;30447;48.742;8.972;2022-07-23T04:28:44;43.32;36.20;61.38;;
45109;Laerm;30447;48.742;8.972;2022-07-23T04:31:11;41.59;36.45;55.78;;
45109;Laerm;30447;48.742;8.972;2022-07-23T04:33:38;40.12;36.45;45.86;;
45109;Laerm;30447;48.742;8.972;2022-07-23T04:36:05;40.78;36.91;49.45;;
45109;Laerm;30447;48.742;8.972;2022-07-23T04:38:31;40.61;35.04;48.99;;
45109;Laerm;30447;48.742;8.972;2022-07-23T04:40:59;40.11;35.66;48.85;;
45109;Laerm;30447;48.742;8.972;2022-07-23T04:43:26;40.30;35.66;50.67;;
45109;Laerm;30447;48.742;8.972;2022-07-23T04:45:53;40.09;36.45;48.29;;
45109;Laerm;30447;48.742;8.972;2022-07-23T04:48:20;40.26;35.94;46.38;;
45109;Laerm;30447;48.742;8.972;2022-07-23T04:50:46;43.13;35.94;57.91;;
45109;Laerm;30447;48.742;8.972;2022-07-23T04:53:13;42.17;34.69;53.37;;
45109;Laerm;30447;48.742;8.972;2022-07-23T04:55:40;40.31;35.04;51.02;;
45109;Laerm;30447;48.742;8.972;2022-07-23T04:58:06;40.82;34.31;49.24;;
45109;Laerm;30447;48.742;8.972;2022-07-23T05:00:33;41.03;35.36;51.68;;
45109;Laerm;30447;48.742;8.972;2022-07-23T05:02:59;38.19;33.44;46.07;;
45109;Laerm;30447;48.742;8.972;2022-07-23T05:05:26;38.26;33.90;49.49;;
45109;Laerm;30447;48.742;8.972;2022-07-23T05:07:53;39.88;33.90;49.65;;
45109;Laerm;30447;48.742;8.972;2022-07-23T05:10:19;38.73;34.69;51.56;;
45109;Laerm;30447;48.742;8.972;2022-07-23T05:12:46;38.01;34.31;45.36;;
45109;Laerm;30447;48.742;8.972;2022-07-23T05:15:14;39.18;33.44;51.93;;
45109;Laerm;30447;48.742;8.972;2022-07-23T05:17:41;40.76;34.31;52.45;;
45109;Laerm;30447;48.742;8.972;2022-07-23T05:20:08;39.20;33.90;51.82;;
45109;Laerm;30447;48.742;8.972;2022-07-23T05:22:35;39.15;34.69;51.75;;
45109;Laerm;30447;48.742;8.972;2022-07-23T05:25:02;39.12;34.69;55.12;;
45109;Laerm;30447;48.742;8.972;2022-07-23T05:27:28;39.06;33.44;49.51;;
45109;Laerm;30447;48.742;8.972;2022-07-23T05:29:55;38.68;33.90;51.75;;
45109;Laerm;30447;48.742;8.972;2022-07-23T05:32:22;40.58;33.90;52.13;;
45109;Laerm;30447;48.742;8.972;2022-07-23T05:34:48;38.27;34.31;47.52;;
45109;Laerm;30447;48.742;8.972;2022-07-23T05:37:16;38.00;33.90;43.54;;
45109;Laerm;30447;48.742;8.972;2022-07-23T05:39:42;38.05;33.44;43.14;;
45109;Laerm;30447;48.742;8.972;2022-07-23T05:42:09;38.22;32.93;42.71;;
45109;Laerm;30447;48.742;8.972;2022-07-23T05:44:36;37.95;32.93;43.54;;
45109;Laerm;30447;48.742;8.972;2022-07-23T05:47:02;37.82;33.44;44.23;;
45109;Laerm;30447;48.742;8.972;2022-07-23T05:49:29;38.11;32.93;48.78;;
45109;Laerm;30447;48.742;8.972;2022-07-23T05:51:55;38.27;32.93;48.34;;
45109;Laerm;30447;48.742;8.972;2022-07-23T05:54:22;40.20;33.44;63.19;;
45109;Laerm;30447;48.742;8.972;2022-07-23T05:56:49;39.20;33.44;56.43;;
45109;Laerm;30447;48.742;8.972;2022-07-23T05:59:16;37.64;33.44;47.02;;
45109;Laerm;30447;48.742;8.972;2022-07-23T06:01:43;37.77;33.44;43.63;;
45109;Laerm;30447;48.742;8.972;2022-07-23T06:04:09;37.84;33.44;45.51;;
45109;Laerm;30447;48.742;8.972;2022-07-23T06:06:36;38.78;34.69;52.17;;
45109;Laerm;30447;48.742;8.972;2022-07-23T06:09:03;38.36;32.35;50.92;;
45109;Laerm;30447;48.742;8.972;2022-07-23T06:11:29;39.02;32.93;56.67;;
45109;Laerm;30447;48.742;8.972;2022-07-23T06:13:56;39.34;32.93;52.22;;
45109;Laerm;30447;48.742;8.972;2022-07-23T06:16:23;38.82;34.69;46.30;;
45109;Laerm;30447;48.742;8.972;2022-07-23T06:18:49;37.75;31.68;45.69;;
45109;Laerm;30447;48.742;8.972;2022-07-23T06:21:16;37.93;32.93;49.14;;
45109;Laerm;30447;48.742;8.972;2022-07-23T06:23:42;38.83;34.31;46.71;;
45109;Laerm;30447;48.742;8.972;2022-07-23T06:26:09;38.60;34.69;46.78;;
45109;Laerm;30447;48.742;8.972;2022-07-23T06:28:36;38.92;35.66;51.22;;
45109;Laerm;30447;48.742;8.972;2022-07-23T06:33:35;38.92;34.69;48.54;;
45109;Laerm;30447;48.742;8.972;2022-07-23T06:36:02;38.39;34.31;57.19;;
45109;Laerm;30447;48.742;8.972;2022-07-23T06:38:29;37.84;32.93;50.85;;
45109;Laerm;30447;48.742;8.972;2022-07-23T06:40:55;39.43;33.90;51.50;;
45109;Laerm;30447;48.742;8.972;2022-07-23T06:43:22;38.37;34.69;44.31;;
45109;Laerm;30447;48.742;8.972;2022-07-23T06:45:48;39.62;35.04;59.13;;
45109;Laerm;30447;48.742;8.972;2022-07-23T06:48:15;42.62;35.36;56.70;;
45109;Laerm;30447;48.742;8.972;2022-07-23T06:50:42;38.85;34.69;52.24;;
45109;Laerm;30447;48.742;8.972;2022-07-23T06:53:08;39.44;35.94;57.52;;
45109;Laerm;30447;48.742;8.972;2022-07-23T06:55:35;40.10;36.45;55.88;;
45109;Laerm;30447;48.742;8.972;2022-07-23T06:58:04;43.88;36.45;58.58;;
45109;Laerm;30447;48.742;8.972;2022-07-23T07:00:31;39.37;35.94;47.08;;
45109;Laerm;30447;48.742;8.972;2022-07-23T07:02:58;40.67;35.36;56.30;;
45109;Laerm;30447;48.742;8.972;2022-07-23T07:05:25;40.49;36.69;51.23;;
45109;Laerm;30447;48.742;8.972;2022-07-23T07:07:56;45.62;39.08;70.38;;
45109;Laerm;30447;48.742;8.972;2022-07-23T07:10:23;41.19;38.37;49.18;;
45109;Laerm;30447;48.742;8.972;2022-07-23T07:12:50;39.96;36.45;45.97;;
45109;Laerm;30447;48.742;8.972;2022-07-23T07:15:16;38.76;35.36;47.28;;
45109;Laerm;30447;48.742;8.972;2022-07-23T07:17:43;39.37;35.04;48.69;;
45109;Laerm;30447;48.742;8.972;2022-07-23T07:20:10;40.93;35.04;53.54;;
45109;Laerm;30447;48.742;8.972;2022-07-23T07:22:37;44.08;35.66;55.55;;
45109;Laerm;30447;48.742;8.972;2022-07-23T07:25:06;39.24;33.90;48.70;;
45109;Laerm;30447;48.742;8.972;2022-07-23T07:27:33;38.85;35.04;49.20;;
45109;Laerm;30447;48.742;8.972;2022-07-23T07:29:59;40.31;36.45;59.10;;
45109;Laerm;30447;48.742;8.972;2022-07-23T07:32:26;42.54;36.20;66.05;;
45109;Laerm;30447;48.742;8.972;2022-07-23T07:34:52;41.56;36.20;57.95;;
45109;Laerm;30447;48.742;8.972;2022-07-23T07:37:19;39.71;35.94;53.61;;
45109;Laerm;30447;48.742;8.972;2022-07-23T07:39:46;39.50;35.04;49.06;;
45109;Laerm;30447;48.742;8.972;2022-07-23T07:42:12;39.29;35.66;58.57;;
45109;Laerm;30447;48.742;8.972;2022-07-23T07:44:39;40.80;36.20;45.45;;
45109;Laerm;30447;48.742;8.972;2022-07-23T07:47:05;39.09;35.04;51.51;;
45109;Laerm;30447;48.742;8.972;2022-07-23T07:49:33;38.78;34.69;42.98;;
45109;Laerm;30447;48.742;8.972;2022-07-23T07:51:59;39.75;35.94;54.12;;
45109;Laerm;30447;48.742;8.972;2022-07-23T07:54:26;39.34;36.20;52.13;;
45109;Laerm;30447;48.742;8.972;2022-07-23T07:56:53;38.57;35.04;44.54;;
45109;Laerm;30447;48.742;8.972;2022-07-23T07:59:20;39.48;34.69;53.44;;
45109;Laerm;30447;48.742;8.972;2022-07-23T08:01:46;40.32;32.35;55.62;;
45109;Laerm;30447;48.742;8.972;2022-07-23T08:04:13;40.67;33.90;56.73;;
45109;Laerm;30447;48.742;8.972;2022-07-23T08:06:39;38.94;34.69;53.63;;
45109;Laerm;30447;48.742;8.972;2022-07-23T08:09:06;38.70;34.31;46.89;;
45109;Laerm;30447;48.742;8.972;2022-07-23T08:11:33;38.13;33.90;48.55;;
45109;Laerm;30447;48.742;8.972;2022-07-23T08:14:00;39.85;35.36;52.36;;
45109;Laerm;30447;48.742;8.972;2022-07-23T08:16:26;40.25;32.93;51.65;;
45109;Laerm;30447;48.742;8.972;2022-07-23T08:18:53;39.71;34.31;52.84;;
45109;Laerm;30447;48.742;8.972;2022-07-23T08:21:19;38.31;33.55;46.82;;
45109;Laerm;30447;48.742;8.972;2022-07-23T08:23:46;38.55;33.90;45.83;;
45109;Laerm;30447;48.742;8.972;2022-07-23T08:26:13;38.02;33.44;43.81;;
45109;Laerm;30447;48.742;8.972;2022-07-23T08:28:39;38.29;34.31;49.95;;
45109;Laerm;30447;48.742;8.972;2022-07-23T08:31:06;38.01;33.97;44.73;;
45109;Laerm;30447;48.742;8.972;2022-07-23T08:33:33;38.81;33.90;50.15;;
45109;Laerm;30447;48.742;8.972;2022-07-23T08:36:02;38.80;33.90;54.71;;
45109;Laerm;30447;48.742;8.972;2022-07-23T08:38:31;39.27;33.90;58.76;;
45109;Laerm;30447;48.742;8.972;2022-07-23T08:40:58;39.21;35.04;49.75;;
45109;Laerm;30447;48.742;8.972;2022-07-23T08:43:32;39.59;34.69;52.28;;
45109;Laerm;30447;48.742;8.972;2022-07-23T08:46:01;39.86;34.69;52.06;;
45109;Laerm;30447;48.742;8.972;2022-07-23T08:48:35;38.91;33.90;48.13;;
45109;Laerm;30447;48.742;8.972;2022-07-23T08:51:05;38.72;33.44;54.75;;
45109;Laerm;30447;48.742;8.972;2022-07-23T08:53:33;40.51;34.31;58.59;;
45109;Laerm;30447;48.742;8.972;2022-07-23T08:56:03;38.76;34.31;54.77;;
45109;Laerm;30447;48.742;8.972;2022-07-23T08:58:31;39.44;33.90;52.02;;
45109;Laerm;30447;48.742;8.972;2022-07-23T09:01:00;38.67;34.69;53.99;;
45109;Laerm;30447;48.742;8.972;2022-07-23T09:03:35;40.73;34.31;62.90;;
45109;Laerm;30447;48.742;8.972;2022-07-23T09:06:04;41.55;35.04;58.00;;
45109;Laerm;30447;48.742;8.972;2022-07-23T09:08:38;40.35;34.31;56.48;;
45109;Laerm;30447;48.742;8.972;2022-07-23T09:11:08;40.55;35.04;59.74;;
45109;Laerm;30447;48.742;8.972;2022-07-23T09:13:53;41.55;35.04;62.10;;
45109;Laerm;30447;48.742;8.972;2022-07-23T09:16:30;41.54;33.90;59.69;;
45109;Laerm;30447;48.742;8.972;2022-07-23T09:19:03;39.38;34.69;63.01;;
45109;Laerm;30447;48.742;8.972;2022-07-23T09:21:35;38.74;34.69;48.58;;
45109;Laerm;30447;48.742;8.972;2022-07-23T09:24:08;39.71;34.69;63.03;;
45109;Laerm;30447;48.742;8.972;2022-07-23T09:26:40;43.78;33.90;69.89;;
45109;Laerm;30447;48.742;8.972;2022-07-23T09:29:13;39.17;34.69;56.59;;
45109;Laerm;30447;48.742;8.972;2022-07-23T09:31:53;38.77;32.93;46.48;;
45109;Laerm;30447;48.742;8.972;2022-07-23T09:34:29;39.70;33.90;53.17;;
45109;Laerm;30447;48.742;8.972;2022-07-23T09:37:12;38.83;34.31;49.84;;
45109;Laerm;30447;48.742;8.972;2022-07-23T09:39:41;39.07;33.90;48.88;;
45109;Laerm;30447;48.742;8.972;2022-07-23T09:44:57;38.31;33.44;46.02;;
45109;Laerm;30447;48.742;8.972;2022-07-23T09:47:29;38.32;34.31;46.45;;
45109;Laerm;30447;48.742;8.972;2022-07-23T09:50:09;38.59;33.90;50.03;;
45109;Laerm;30447;48.742;8.972;2022-07-23T09:52:45;45.81;35.04;77.28;;
45109;Laerm;30447;48.742;8.972;2022-07-23T09:55:16;39.22;34.31;62.95;;
45109;Laerm;30447;48.742;8.972;2022-07-23T09:57:46;40.05;33.97;50.64;;
45109;Laerm;30447;48.742;8.972;2022-07-23T10:00:16;39.62;35.04;48.23;;
45109;Laerm;30447;48.742;8.972;2022-07-23T10:02:46;40.24;35.36;53.46;;
45109;Laerm;30447;48.742;8.972;2022-07-23T10:05:13;40.33;34.69;46.71;;
45109;Laerm;30447;48.742;8.972;2022-07-23T10:07:42;39.26;34.31;53.54;;
45109;Laerm;30447;48.742;8.972;2022-07-23T10:10:10;39.75;34.31;50.93;;
45109;Laerm;30447;48.742;8.972;2022-07-23T10:12:38;39.17;35.66;46.15;;
45109;Laerm;30447;48.742;8.972;2022-07-23T10:15:24;38.98;34.31;49.98;;
45109;Laerm;30447;48.742;8.972;2022-07-23T10:17:52;39.40;35.04;45.78;;
45109;Laerm;30447;48.742;8.972;2022-07-23T10:20:19;39.32;35.36;47.60;;
45109;Laerm;30447;48.742;8.972;2022-07-23T10:23:07;40.48;35.94;46.38;;
45109;Laerm;30447;48.742;8.972;2022-07-23T10:25:51;39.30;35.04;46.07;;
45109;Laerm;30447;48.742;8.972;2022-07-23T10:29:06;40.18;34.69;52.25;;
45109;Laerm;30447;48.742;8.972;2022-07-23T10:32:00;39.86;34.69;52.56;;
45109;Laerm;30447;48.742;8.972;2022-07-23T10:35:00;39.61;35.04;53.86;;
45109;Laerm;30447;48.742;8.972;2022-07-23T10:37:39;38.72;34.31;44.80;;
45109;Laerm;30447;48.742;8.972;2022-07-23T10:42:47;38.91;34.69;45.69;;
45109;Laerm;30447;48.742;8.972;2022-07-23T10:45:35;38.96;35.04;53.07;;
45109;Laerm;30447;48.742;8.972;2022-07-23T10:51:11;39.61;35.04;51.22;;
45109;Laerm;30447;48.742;8.972;2022-07-23T10:59:23;38.68;33.90;46.97;;
45109;Laerm;30447;48.742;8.972;2022-07-23T11:01:49;39.05;33.90;44.47;;
45109;Laerm;30447;48.742;8.972;2022-07-23T11:04:16;39.85;36.20;43.58;;
45109;Laerm;30447;48.742;8.972;2022-07-23T11:09:41;39.42;35.94;46.07;;
45109;Laerm;30447;48.742;8.972;2022-07-23T11:15:11;39.98;35.94;44.15;;
45109;Laerm;30447;48.742;8.972;2022-07-23T11:18:00;40.14;36.45;48.39;;
45109;Laerm;30447;48.742;8.972;2022-07-23T11:20:27;39.41;34.69;44.90;;
45109;Laerm;30447;48.742;8.972;2022-07-23T11:22:59;39.70;36.45;54.27;;
45109;Laerm;30447;48.742;8.972;2022-07-23T11:28:11;39.67;35.94;44.65;;
45109;Laerm;30447;48.742;8.972;2022-07-23T11:30:45;39.98;36.20;50.64;;
45109;Laerm;30447;48.742;8.972;2022-07-23T11:35:42;39.36;35.66;48.88;;
45109;Laerm;30447;48.742;8.972;2022-07-23T11:38:19;43.33;35.94;70.37;;
45109;Laerm;30447;48.742;8.972;2022-07-23T11:40:55;40.11;35.04;47.57;;
45109;Laerm;30447;48.742;8.972;2022-07-23T11:43:24;39.76;35.36;50.25;;
45109;Laerm;30447;48.742;8.972;2022-07-23T11:45:57;39.90;35.36;52.04;;
45109;Laerm;30447;48.742;8.972;2022-07-23T11:48:28;39.08;34.69;44.47;;
45109;Laerm;30447;48.742;8.972;2022-07-23T11:50:57;38.89;34.31;42.76;;
45109;Laerm;30447;48.742;8.972;2022-07-23T11:53:31;40.94;36.45;46.52;;
45109;Laerm;30447;48.742;8.972;2022-07-23T11:56:11;41.89;38.21;46.97;;
45109;Laerm;30447;48.742;8.972;2022-07-23T11:58:54;40.85;36.20;51.93;;
45109;Laerm;30447;48.742;8.972;2022-07-23T12:01:21;42.20;37.12;51.56;;
45109;Laerm;30447;48.742;8.972;2022-07-23T12:03:50;44.36;35.66;58.62;;
45109;Laerm;30447;48.742;8.972;2022-07-23T12:06:17;39.03;35.66;42.88;;
45109;Laerm;30447;48.742;8.972;2022-07-23T12:08:44;39.10;34.69;43.72;;
45109;Laerm;30447;48.742;8.972;2022-07-23T12:11:12;40.25;35.94;54.09;;
45109;Laerm;30447;48.742;8.972;2022-07-23T12:13:39;41.05;36.20;56.82;;
45109;Laerm;30447;48.742;8.972;2022-07-23T12:16:06;42.63;36.45;55.04;;
45109;Laerm;30447;48.742;8.972;2022-07-23T12:18:34;41.90;36.45;54.73;;
45109;Laerm;30447;48.742;8.972;2022-07-23T12:21:05;40.67;36.20;53.23;;
45109;Laerm;30447;48.742;8.972;2022-07-23T12:23:33;41.94;38.21;53.01;;
45109;Laerm;30447;48.742;8.972;2022-07-23T12:26:02;41.36;37.52;47.63;;
45109;Laerm;30447;48.742;8.972;2022-07-23T12:28:32;41.18;36.91;45.51;;
45109;Laerm;30447;48.742;8.972;2022-07-23T12:30:59;40.60;37.52;47.86;;
45109;Laerm;30447;48.742;8.972;2022-07-23T12:33:36;40.65;37.32;45.11;;
45109;Laerm;30447;48.742;8.972;2022-07-23T12:36:07;40.86;36.98;49.87;;
45109;Laerm;30447;48.742;8.972;2022-07-23T12:38:42;40.80;37.52;45.48;;
45109;Laerm;30447;48.742;8.972;2022-07-23T12:41:09;40.74;37.52;51.55;;
45109;Laerm;30447;48.742;8.972;2022-07-23T12:43:43;41.04;37.70;51.32;;
45109;Laerm;30447;48.742;8.972;2022-07-23T12:46:19;40.21;36.91;45.63;;
45109;Laerm;30447;48.742;8.972;2022-07-23T12:51:25;40.65;36.69;49.72;;
45109;Laerm;30447;48.742;8.972;2022-07-23T12:54:06;40.18;36.91;44.27;;
45109;Laerm;30447;48.742;8.972;2022-07-23T12:56:37;42.15;37.52;59.04;;
45109;Laerm;30447;48.742;8.972;2022-07-23T12:59:05;43.93;35.94;57.20;;
45109;Laerm;30447;48.742;8.972;2022-07-23T13:01:43;40.63;36.20;49.04;;
45109;Laerm;30447;48.742;8.972;2022-07-23T13:04:15;41.05;37.32;53.66;;
45109;Laerm;30447;48.742;8.972;2022-07-23T13:06:49;40.07;35.94;51.23;;
45109;Laerm;30447;48.742;8.972;2022-07-23T13:09:20;40.10;35.66;49.36;;
45109;Laerm;30447;48.742;8.972;2022-07-23T13:11:49;41.47;36.91;51.54;;
45109;Laerm;30447;48.742;8.972;2022-07-23T13:14:19;43.24;37.88;53.90;;
45109;Laerm;30447;48.742;8.972;2022-07-23T13:16:50;51.04;39.08;65.38;;
45109;Laerm;30447;48.742;8.972;2022-07-23T13:19:18;45.44;36.20;58.14;;
45109;Laerm;30447;48.742;8.972;2022-07-23T13:21:45;48.79;37.12;73.78;;
45109;Laerm;30447;48.742;8.972;2022-07-23T13:24:13;43.91;36.69;59.02;;
45109;Laerm;30447;48.742;8.972;2022-07-23T13:26:41;40.63;36.91;52.97;;
45109;Laerm;30447;48.742;8.972;2022-07-23T13:29:08;41.55;35.94;50.10;;
45109;Laerm;30447;48.742;8.972;2022-07-23T13:31:37;41.68;36.77;51.34;;
45109;Laerm;30447;48.742;8.972;2022-07-23T13:34:06;40.19;36.45;54.96;;
45109;Laerm;30447;48.742;8.972;2022-07-23T13:36:32;39.71;35.94;44.35;;
45109;Laerm;30447;48.742;8.972;2022-07-23T13:38:59;39.84;35.94;44.97;;
45109;Laerm;30447;48.742;8.972;2022-07-23T13:41:26;40.18;36.45;46.35;;
45109;Laerm;30447;48.742;8.972;2022-07-23T13:43:52;40.64;36.20;55.24;;
45109;Laerm;30447;48.742;8.972;2022-07-23T13:46:19;39.31;36.20;44.07;;
45109;Laerm;30447;48.742;8.972;2022-07-23T13:48:46;40.01;36.20;46.57;;
45109;Laerm;30447;48.742;8.972;2022-07-23T13:51:12;39.94;36.20;43.44;;
45109;Laerm;30447;48.742;8.972;2022-07-23T13:53:39;39.89;36.20;49.02;;
45109;Laerm;30447;48.742;8.972;2022-07-23T13:56:05;39.57;36.20;50.22;;
45109;Laerm;30447;48.742;8.972;2022-07-23T13:58:32;40.00;35.94;45.27;;
45109;Laerm;30447;48.742;8.972;2022-07-23T14:00:59;39.58;35.36;44.76;;
45109;Laerm;30447;48.742;8.972;2022-07-23T14:03:25;38.96;34.69;44.35;;
45109;Laerm;30447;48.742;8.972;2022-07-23T14:05:52;40.61;37.52;48.98;;
45109;Laerm;30447;48.742;8.972;2022-07-23T14:08:19;42.04;34.31;63.14;;
45109;Laerm;30447;48.742;8.972;2022-07-23T14:10:46;55.58;36.45;72.08;;
45109;Laerm;30447;48.742;8.972;2022-07-23T14:13:13;40.00;36.45;44.58;;
45109;Laerm;30447;48.742;8.972;2022-07-23T14:15:40;40.35;35.36;58.66;;
45109;Laerm;30447;48.742;8.972;2022-07-23T14:18:07;41.16;37.70;52.20;;
45109;Laerm;30447;48.742;8.972;2022-07-23T14:20:34;40.55;36.91;60.74;;
45109;Laerm;30447;48.742;8.972;2022-07-23T14:23:00;40.07;36.20;46.59;;